createdAt,value
2022-12-31T00:05:13.603Z,13.20
2022-12-31T00:15:15.323Z,13.10
2022-12-31T00:25:17.036Z,13.20
2022-12-31T00:35:18.677Z,13.20
2022-12-31T00:45:20.339Z,13.30
2022-12-31T00:55:21.958Z,13.30
2022-12-31T01:05:23.639Z,13.30
2022-12-31T01:15:25.377Z,13.30
2022-12-31T01:25:27.025Z,13.30
2022-12-31T01:35:28.661Z,13.40
2022-12-31T01:45:30.309Z,13.40
2022-12-31T01:55:37.353Z,13.50
2022-12-31T02:05:57.208Z,13.50
2022-12-31T02:16:05.037Z,13.60
2022-12-31T02:26:19.028Z,13.70
2022-12-31T02:36:32.197Z,13.80
2022-12-31T02:46:49.649Z,13.90
2022-12-31T02:57:20.332Z,14.00
2022-12-31T03:07:25.109Z,14.10
2022-12-31T03:17:26.913Z,14.10
2022-12-31T03:27:28.533Z,14.10
2022-12-31T03:37:30.225Z,14.10
2022-12-31T03:47:31.903Z,14.20
2022-12-31T03:57:33.584Z,14.20
2022-12-31T04:07:35.403Z,14.30
2022-12-31T04:17:37.059Z,14.40
2022-12-31T04:27:40.376Z,14.50
2022-12-31T04:37:41.997Z,14.50
2022-12-31T04:47:43.626Z,14.50
2022-12-31T04:57:45.243Z,14.60
2022-12-31T05:07:46.863Z,14.70
2022-12-31T05:17:48.459Z,14.70
2022-12-31T05:27:50.098Z,14.90
2022-12-31T05:37:51.811Z,15.00
2022-12-31T05:47:53.448Z,15.00
2022-12-31T05:57:55.099Z,15.00
2022-12-31T06:07:56.993Z,15.10
2022-12-31T06:17:58.685Z,15.20
2022-12-31T06:28:00.387Z,15.20
2022-12-31T06:38:01.990Z,15.30
2022-12-31T06:48:03.774Z,15.30
2022-12-31T06:58:05.526Z,15.40
2022-12-31T07:08:17.438Z,15.40
2022-12-31T07:18:33.689Z,15.30
2022-12-31T07:29:13.075Z,15.40
2022-12-31T07:39:41.454Z,15.30
2022-12-31T07:49:44.247Z,15.40
2022-12-31T08:00:05.968Z,15.30
2022-12-31T08:10:18.093Z,15.40
2022-12-31T08:20:20.174Z,15.40
2022-12-31T08:30:23.499Z,15.50
2022-12-31T08:40:58.386Z,15.50
2022-12-31T08:51:00.333Z,15.70
2022-12-31T09:01:05.425Z,15.80
2022-12-31T09:11:22.576Z,15.90
2022-12-31T09:21:25.088Z,16.10
2022-12-31T09:31:35.206Z,16.20
2022-12-31T09:42:14.257Z,16.20
2022-12-31T09:52:51.477Z,16.30
2022-12-31T10:03:19.557Z,16.40
2022-12-31T10:13:43.026Z,16.50
2022-12-31T10:23:58.149Z,16.70
2022-12-31T10:34:21.596Z,16.70
2022-12-31T10:45:00.996Z,16.80
2022-12-31T10:55:37.755Z,16.70
2022-12-31T11:06:26.256Z,16.80
2022-12-31T11:17:09.061Z,16.80
2022-12-31T11:27:22.344Z,16.90
2022-12-31T11:37:36.699Z,16.90
2022-12-31T11:48:32.155Z,17.10
2022-12-31T11:58:34.375Z,17.30
2022-12-31T12:08:36.387Z,17.40
2022-12-31T12:18:49.420Z,17.60
2022-12-31T12:28:51.061Z,17.70
2022-12-31T12:39:06.018Z,17.90
2022-12-31T12:49:18.067Z,18.20
2022-12-31T12:59:49.947Z,18.40
2022-12-31T13:10:10.456Z,18.40
2022-12-31T13:20:23.445Z,18.30
2022-12-31T13:30:36.222Z,18.30
2022-12-31T13:40:49.424Z,18.20
2022-12-31T13:51:03.305Z,18.10
2022-12-31T14:01:20.302Z,18.10
2022-12-31T14:11:39.920Z,18.00
2022-12-31T14:22:03.931Z,18.00
2022-12-31T14:32:26.303Z,17.80
2022-12-31T14:42:55.487Z,17.80
2022-12-31T14:53:00.057Z,17.50
2022-12-31T15:03:07.507Z,17.30
2022-12-31T15:13:42.673Z,17.50
2022-12-31T15:23:46.098Z,17.00
2022-12-31T15:34:05.718Z,17.00
2022-12-31T15:44:21.966Z,16.90
2022-12-31T15:54:48.715Z,16.70
2022-12-31T16:04:50.782Z,16.60
2022-12-31T16:14:56.503Z,16.30
2022-12-31T16:35:26.934Z,15.80
2022-12-31T16:45:35.029Z,15.50
2022-12-31T16:55:36.728Z,15.20
2022-12-31T17:05:57.945Z,15.00
2022-12-31T17:16:00.768Z,14.80
2022-12-31T17:26:14.568Z,14.60
2022-12-31T17:36:24.391Z,14.30
2022-12-31T17:46:26.724Z,14.30
2022-12-31T17:56:28.524Z,14.10
2022-12-31T18:06:30.193Z,14.00
2022-12-31T18:16:31.867Z,13.90
2022-12-31T18:26:34.554Z,13.70
2022-12-31T18:36:36.167Z,13.60
2022-12-31T18:46:37.819Z,13.60
2022-12-31T18:56:44.790Z,13.60
2022-12-31T19:06:49.009Z,13.50
2022-12-31T19:16:52.046Z,13.40
2022-12-31T19:26:54.638Z,13.20
2022-12-31T19:36:56.298Z,13.20
2022-12-31T19:46:57.933Z,13.20
2022-12-31T19:56:59.596Z,13.20
2022-12-31T20:07:01.276Z,13.10
2022-12-31T20:17:03.045Z,13.10
2022-12-31T20:27:04.711Z,13.10
2022-12-31T20:37:06.368Z,13.20
2022-12-31T20:47:08.111Z,13.10
2022-12-31T20:57:09.729Z,13.10
2022-12-31T21:07:11.351Z,13.00
2022-12-31T21:17:12.965Z,13.00
2022-12-31T21:27:14.583Z,12.90
2022-12-31T21:37:16.232Z,12.90
2022-12-31T21:47:41.292Z,12.90
2022-12-31T21:58:24.151Z,12.80
2022-12-31T22:08:11.245Z,12.50
2022-12-31T22:18:14.796Z,12.50
2022-12-31T22:38:38.177Z,12.20
2022-12-31T22:48:40.707Z,12.10
2022-12-31T22:58:42.546Z,12.00
2022-12-31T23:09:02.901Z,11.80
2022-12-31T23:19:23.801Z,11.60
2022-12-31T23:29:26.128Z,11.60
2022-12-31T23:39:28.043Z,11.60
2022-12-31T23:52:13.287Z,11.50
